Federal Way, Washington
Current Conditions -  °F | °C
As of 10:53 PM on Thursday 27 Nov 2014 (Local Time) from KSEA Reporting Station
Light Rain Light Rain  
Wind Chill: 12°   Ceiling: 1800
Heat Index: 12°   Visibility: 10mi
Dew Point:   Wind: 13mph
Humidity: 83%   Direction: 190°S
Pressure: 29.71"   Gusts: NA
Location:  47.3°N, 122.32°W
Report Text: KSEA 280653Z 19011KT 10SM -RA BKN018 OVC024 12/09 A2971 RMK AO2 RAB47 SLP066 P0000 T01220094
Loading
Personal Weather Stations






























Interactive Weather Map New forecast layout! Learn more

10-Day Weather Forecast

Advertisements
Track Severe Weather on mobile